createdAt,value
2022-11-15T00:00:50.912Z,5.75
2022-11-15T00:03:23.294Z,5.73
2022-11-15T00:05:50.475Z,5.68
2022-11-15T00:08:17.440Z,5.66
2022-11-15T00:10:44.366Z,5.70
2022-11-15T00:13:13.486Z,5.62
2022-11-15T00:15:41.696Z,5.61
2022-11-15T00:18:13.685Z,5.69
2022-11-15T00:20:40.334Z,5.69
2022-11-15T00:23:07.503Z,5.74
2022-11-15T00:25:34.160Z,5.80
2022-11-15T00:28:01.344Z,5.75
2022-11-15T00:30:28.882Z,5.88
2022-11-15T00:32:55.711Z,5.72
2022-11-15T00:35:22.387Z,5.68
2022-11-15T00:37:48.965Z,5.76
2022-11-15T00:40:15.788Z,5.76
2022-11-15T00:42:42.737Z,5.85
2022-11-15T00:45:10.084Z,5.83
2022-11-15T00:47:36.462Z,5.74
2022-11-15T00:50:03.052Z,5.86
2022-11-15T00:52:29.375Z,5.96
2022-11-15T00:54:55.732Z,5.81
2022-11-15T00:57:22.067Z,5.79
2022-11-15T00:59:48.828Z,5.69
2022-11-15T01:02:15.164Z,5.68
2022-11-15T01:04:41.816Z,5.66
2022-11-15T01:07:08.298Z,5.61
2022-11-15T01:09:34.672Z,5.69
2022-11-15T01:12:01.110Z,5.49
2022-11-15T01:14:27.505Z,5.39
2022-11-15T01:16:53.854Z,5.43
2022-11-15T01:19:20.234Z,5.51
2022-11-15T01:21:46.602Z,5.59
2022-11-15T01:24:14.044Z,5.61
2022-11-15T01:26:40.509Z,5.65
2022-11-15T01:29:06.931Z,5.49
2022-11-15T01:31:33.267Z,5.41
2022-11-15T01:33:59.647Z,5.45
2022-11-15T01:36:26.042Z,5.42
2022-11-15T01:38:58.250Z,5.45
2022-11-15T01:41:34.400Z,5.50
2022-11-15T01:44:40.361Z,5.47
2022-11-15T01:47:32.055Z,5.39
2022-11-15T01:50:13.236Z,5.60
2022-11-15T01:52:41.336Z,5.48
2022-11-15T01:55:19.998Z,5.42
2022-11-15T01:57:49.944Z,5.54
2022-11-15T02:00:16.818Z,5.50
2022-11-15T02:02:43.922Z,5.52
2022-11-15T02:05:10.890Z,5.45
2022-11-15T02:07:37.471Z,5.49
2022-11-15T02:10:13.684Z,5.56
2022-11-15T02:12:40.578Z,5.54
2022-11-15T02:15:09.089Z,5.56
2022-11-15T02:17:52.867Z,5.49
2022-11-15T02:20:42.119Z,5.50
2022-11-15T02:23:33.922Z,5.36
2022-11-15T02:26:41.813Z,5.14
2022-11-15T02:29:12.644Z,4.97
2022-11-15T02:32:16.523Z,5.23
2022-11-15T02:34:55.835Z,5.26
2022-11-15T02:37:35.696Z,5.31
2022-11-15T02:40:18.124Z,5.38
2022-11-15T02:43:10.394Z,5.31
2022-11-15T02:45:40.974Z,5.31
2022-11-15T02:48:09.024Z,5.26
2022-11-15T02:50:35.717Z,5.10
2022-11-15T02:53:02.936Z,4.89
2022-11-15T02:55:30.590Z,5.10
2022-11-15T02:58:09.029Z,5.26
2022-11-15T03:00:39.884Z,4.92
2022-11-15T03:03:38.138Z,5.16
2022-11-15T03:06:23.051Z,5.14
2022-11-15T03:09:10.512Z,5.41
2022-11-15T03:11:42.111Z,5.46
2022-11-15T03:14:08.853Z,5.38
2022-11-15T03:16:45.753Z,5.58
2022-11-15T03:19:35.326Z,5.42
2022-11-15T03:22:06.447Z,5.61
2022-11-15T03:24:38.087Z,5.71
2022-11-15T03:27:07.829Z,5.54
2022-11-15T03:29:42.891Z,5.69
2022-11-15T03:32:19.709Z,5.45
2022-11-15T03:34:54.101Z,5.71
2022-11-15T03:37:25.375Z,5.67
2022-11-15T03:39:51.947Z,5.54
2022-11-15T03:42:45.908Z,5.54
2022-11-15T03:45:24.250Z,5.56
2022-11-15T03:47:59.620Z,5.52
2022-11-15T03:50:27.007Z,5.46
2022-11-15T03:52:55.217Z,5.55
2022-11-15T03:55:22.196Z,5.60
2022-11-15T03:57:52.129Z,5.64
2022-11-15T04:00:18.694Z,5.79
2022-11-15T04:02:45.386Z,5.49
2022-11-15T04:05:11.750Z,5.68
2022-11-15T04:07:38.159Z,5.94
2022-11-15T04:10:05.123Z,6.03
2022-11-15T04:12:33.274Z,5.94
2022-11-15T04:15:10.357Z,6.06
2022-11-15T04:17:50.670Z,6.10
2022-11-15T04:20:45.179Z,6.10
2022-11-15T04:23:34.280Z,6.22
2022-11-15T04:26:06.725Z,6.18
2022-11-15T04:28:33.083Z,6.24
2022-11-15T04:30:59.507Z,6.25
2022-11-15T04:33:26.383Z,6.26
2022-11-15T04:36:11.241Z,6.18
2022-11-15T04:38:38.259Z,6.24
2022-11-15T04:41:04.820Z,6.30
2022-11-15T04:43:31.570Z,6.43
2022-11-15T04:45:58.291Z,6.46
2022-11-15T04:48:24.653Z,6.44
2022-11-15T04:50:51.000Z,6.45
2022-11-15T04:53:17.378Z,6.49
2022-11-15T04:55:47.389Z,6.54
2022-11-15T04:58:14.331Z,6.62
2022-11-15T05:00:40.893Z,6.64
2022-11-15T05:03:26.027Z,6.61
2022-11-15T05:05:52.440Z,6.63
2022-11-15T05:08:18.805Z,6.63
2022-11-15T05:10:45.507Z,6.78
2022-11-15T05:13:12.259Z,6.84
2022-11-15T05:15:38.617Z,6.99
2022-11-15T05:18:05.113Z,6.98
2022-11-15T05:20:31.465Z,6.92
2022-11-15T05:22:58.257Z,6.96
2022-11-15T05:25:25.196Z,6.93
2022-11-15T05:27:51.822Z,6.99
2022-11-15T05:30:18.244Z,6.86
2022-11-15T05:32:45.337Z,6.91
2022-11-15T05:35:19.763Z,6.86
2022-11-15T05:37:46.092Z,6.85
2022-11-15T05:40:12.481Z,6.65
2022-11-15T05:42:38.916Z,6.71
2022-11-15T05:45:07.288Z,6.67
2022-11-15T05:47:36.363Z,6.64
2022-11-15T05:50:02.905Z,6.59
2022-11-15T05:52:35.604Z,6.55
2022-11-15T05:55:03.841Z,6.81
2022-11-15T05:57:30.239Z,6.91
2022-11-15T05:59:57.135Z,6.65
2022-11-15T06:02:23.579Z,6.77
2022-11-15T06:04:49.967Z,6.78
2022-11-15T06:07:16.460Z,6.87
2022-11-15T06:09:43.256Z,6.84
2022-11-15T06:12:09.576Z,6.81
2022-11-15T06:14:35.945Z,6.89
2022-11-15T06:17:07.244Z,6.94
2022-11-15T06:19:36.496Z,6.80
2022-11-15T06:22:02.981Z,6.82
2022-11-15T06:24:29.349Z,6.86
2022-11-15T06:26:55.702Z,6.83
2022-11-15T06:29:22.068Z,6.83
2022-11-15T06:31:48.400Z,6.80
2022-11-15T06:34:14.782Z,6.82
2022-11-15T06:36:41.113Z,6.89
2022-11-15T06:39:07.498Z,6.88
2022-11-15T06:41:37.066Z,6.88
2022-11-15T06:44:04.269Z,6.97
2022-11-15T06:46:30.617Z,6.99
2022-11-15T06:48:56.999Z,6.94
2022-11-15T06:51:23.344Z,7.01
2022-11-15T06:53:49.868Z,7.08
2022-11-15T06:56:16.239Z,6.97
2022-11-15T06:58:42.614Z,6.97
2022-11-15T07:01:11.376Z,7.02
2022-11-15T07:03:41.595Z,6.94
2022-11-15T07:06:09.426Z,6.97
2022-11-15T07:08:36.267Z,7.00
2022-11-15T07:11:05.083Z,6.99
2022-11-15T07:13:36.666Z,7.04
2022-11-15T07:16:05.488Z,7.01
2022-11-15T07:18:34.306Z,7.08
2022-11-15T07:21:09.403Z,7.17
2022-11-15T07:23:40.119Z,7.08
2022-11-15T07:26:07.845Z,7.07
2022-11-15T07:28:34.707Z,7.01
2022-11-15T07:31:09.393Z,7.02
2022-11-15T07:33:36.872Z,7.04
2022-11-15T07:36:05.699Z,7.07
2022-11-15T07:38:34.166Z,7.11
2022-11-15T07:41:05.077Z,7.20
2022-11-15T07:43:33.814Z,7.28
2022-11-15T07:46:05.878Z,7.33
2022-11-15T07:48:43.237Z,7.37
2022-11-15T07:51:15.277Z,7.38
2022-11-15T07:53:43.074Z,7.41
2022-11-15T07:56:10.250Z,7.49
2022-11-15T07:58:36.665Z,7.56
2022-11-15T08:01:05.104Z,7.61
2022-11-15T08:03:31.764Z,7.59
2022-11-15T08:05:58.567Z,7.66
2022-11-15T08:08:24.945Z,7.64
2022-11-15T08:10:51.700Z,7.69
2022-11-15T08:13:18.309Z,7.65
2022-11-15T08:15:45.204Z,7.71
2022-11-15T08:18:14.547Z,7.65
2022-11-15T08:20:41.867Z,7.66
2022-11-15T08:23:09.181Z,7.67
2022-11-15T08:25:36.640Z,7.70
2022-11-15T08:28:06.046Z,7.79
2022-11-15T08:30:37.308Z,7.74
2022-11-15T08:33:03.816Z,7.84
2022-11-15T08:35:30.211Z,7.84
2022-11-15T08:37:56.530Z,7.89
2022-11-15T08:40:23.692Z,7.89
2022-11-15T08:42:50.191Z,7.85
2022-11-15T08:45:16.576Z,7.90
2022-11-15T08:47:42.902Z,7.95
2022-11-15T08:50:09.760Z,8.00
2022-11-15T08:52:36.128Z,7.95
2022-11-15T08:55:02.497Z,7.97
2022-11-15T08:57:32.020Z,7.91
2022-11-15T08:59:58.944Z,7.94
2022-11-15T09:02:25.334Z,7.85
2022-11-15T09:04:51.744Z,7.93
2022-11-15T09:07:18.696Z,7.90
2022-11-15T09:09:45.157Z,7.99
2022-11-15T09:12:11.728Z,8.01
2022-11-15T09:14:38.107Z,8.00
2022-11-15T09:17:04.479Z,8.07
2022-11-15T09:19:30.812Z,8.07
2022-11-15T09:21:57.600Z,8.26
2022-11-15T09:24:23.965Z,8.31
2022-11-15T09:26:52.186Z,8.40
2022-11-15T09:29:19.317Z,8.52
2022-11-15T09:31:46.144Z,8.60
2022-11-15T09:34:12.865Z,8.70
2022-11-15T09:36:39.388Z,8.65
2022-11-15T09:39:05.718Z,8.72
2022-11-15T09:42:00.034Z,8.79
2022-11-15T09:44:47.423Z,8.83
2022-11-15T09:47:50.545Z,8.84
2022-11-15T09:50:36.398Z,8.84
2022-11-15T09:53:02.949Z,8.89
2022-11-15T09:55:51.519Z,8.92
2022-11-15T09:58:34.144Z,8.87
2022-11-15T10:01:07.748Z,8.81
2022-11-15T10:03:42.718Z,8.78
2022-11-15T10:06:22.779Z,8.74
2022-11-15T10:08:57.563Z,8.69
2022-11-15T10:11:42.715Z,8.71
2022-11-15T10:14:16.271Z,8.79
2022-11-15T10:16:56.700Z,8.78
2022-11-15T10:19:46.468Z,8.78
2022-11-15T10:22:30.890Z,8.73
2022-11-15T10:25:09.517Z,8.69
2022-11-15T10:27:36.858Z,8.75
2022-11-15T10:30:15.012Z,8.77
2022-11-15T10:32:43.991Z,8.79
2022-11-15T10:35:19.465Z,8.75
2022-11-15T10:37:45.806Z,8.71
2022-11-15T10:40:20.062Z,8.77
2022-11-15T10:42:46.787Z,8.83
2022-11-15T10:45:33.908Z,8.95
2022-11-15T10:48:12.464Z,8.99
2022-11-15T10:50:44.269Z,9.05
2022-11-15T10:53:23.716Z,8.94
2022-11-15T10:55:53.352Z,8.99
2022-11-15T10:58:32.895Z,8.90
2022-11-15T11:01:11.104Z,8.87
2022-11-15T11:03:40.050Z,8.85
2022-11-15T11:06:10.872Z,8.77
2022-11-15T11:08:37.658Z,8.82
2022-11-15T11:11:06.136Z,8.82
2022-11-15T11:13:40.838Z,8.89
2022-11-15T11:16:22.728Z,9.00
2022-11-15T11:19:33.785Z,8.98
2022-11-15T11:22:18.695Z,9.08
2022-11-15T11:24:55.774Z,9.09
2022-11-15T11:27:44.539Z,9.17
2022-11-15T11:30:17.704Z,9.37
2022-11-15T11:33:09.371Z,9.46
2022-11-15T11:35:55.122Z,9.55
2022-11-15T11:38:45.839Z,9.65
2022-11-15T11:41:51.284Z,9.73
2022-11-15T11:44:47.855Z,9.83
2022-11-15T11:47:25.727Z,9.90
2022-11-15T11:50:00.115Z,9.94
2022-11-15T11:52:36.132Z,9.96
2022-11-15T11:55:24.133Z,10.02
2022-11-15T11:58:12.319Z,10.10
2022-11-15T12:00:44.495Z,10.19
2022-11-15T12:03:27.084Z,10.05
2022-11-15T12:06:10.528Z,10.04
2022-11-15T12:08:46.739Z,10.02
2022-11-15T12:11:23.362Z,10.05
2022-11-15T12:13:55.601Z,10.12
2022-11-15T12:16:29.061Z,10.06
2022-11-15T12:18:59.923Z,9.98
2022-11-15T12:21:44.995Z,10.01
2022-11-15T12:24:32.971Z,10.00
2022-11-15T12:27:28.207Z,10.05
2022-11-15T12:29:59.166Z,10.00
2022-11-15T12:32:30.326Z,9.92
2022-11-15T12:34:58.577Z,10.05
2022-11-15T12:37:48.408Z,9.99
2022-11-15T12:40:22.924Z,10.08
2022-11-15T12:43:15.451Z,10.12
2022-11-15T12:45:46.693Z,10.12
2022-11-15T12:48:19.073Z,10.10
2022-11-15T12:50:51.694Z,10.11
2022-11-15T12:53:27.691Z,10.19
2022-11-15T12:56:13.458Z,10.14
2022-11-15T12:58:49.689Z,10.14
2022-11-15T13:01:34.332Z,10.27
2022-11-15T13:04:19.645Z,10.27
2022-11-15T13:06:58.424Z,10.24
2022-11-15T13:09:37.046Z,10.30
2022-11-15T13:12:15.401Z,10.34
2022-11-15T13:14:44.171Z,10.33
2022-11-15T13:17:19.967Z,10.37
2022-11-15T13:19:59.716Z,10.44
2022-11-15T13:22:46.295Z,10.53
2022-11-15T13:25:21.785Z,10.55
2022-11-15T13:27:51.998Z,10.60
2022-11-15T13:30:30.148Z,10.61
2022-11-15T13:32:59.604Z,10.61
2022-11-15T13:35:28.268Z,10.64
2022-11-15T13:37:56.399Z,10.74
2022-11-15T13:40:35.114Z,10.75
2022-11-15T13:43:23.958Z,10.82
2022-11-15T13:46:06.274Z,10.85
2022-11-15T13:48:34.789Z,10.80
2022-11-15T13:51:05.949Z,10.71
2022-11-15T13:53:39.273Z,10.72
2022-11-15T13:56:06.670Z,10.74
2022-11-15T13:58:34.190Z,10.70
2022-11-15T14:01:03.796Z,10.78
2022-11-15T14:03:38.762Z,10.74
2022-11-15T14:06:21.364Z,10.71
2022-11-15T14:09:30.005Z,10.75
2022-11-15T14:11:57.647Z,10.78
2022-11-15T14:14:26.455Z,10.64
2022-11-15T14:16:56.081Z,10.72
2022-11-15T14:19:22.356Z,10.73
2022-11-15T14:22:12.530Z,10.65
2022-11-15T14:24:39.615Z,10.61
2022-11-15T14:27:28.106Z,10.54
2022-11-15T14:29:54.814Z,10.55
2022-11-15T14:32:30.125Z,10.50
2022-11-15T14:35:02.041Z,10.50
2022-11-15T14:37:34.372Z,10.49
2022-11-15T14:40:03.801Z,10.40
2022-11-15T14:42:30.186Z,10.36
2022-11-15T14:44:56.759Z,10.33
2022-11-15T14:47:23.198Z,10.29
2022-11-15T14:49:49.608Z,10.29
2022-11-15T14:52:31.795Z,10.24
2022-11-15T14:55:00.224Z,10.22
2022-11-15T14:57:26.681Z,10.23
2022-11-15T14:59:53.131Z,10.16
2022-11-15T15:02:25.121Z,10.22
2022-11-15T15:04:52.180Z,10.29
2022-11-15T15:07:18.813Z,10.24
2022-11-15T15:09:46.477Z,10.22
2022-11-15T15:12:18.836Z,10.19
2022-11-15T15:14:47.425Z,10.16
2022-11-15T15:17:14.071Z,10.14
2022-11-15T15:19:40.549Z,10.16
2022-11-15T15:22:07.214Z,10.10
2022-11-15T15:24:33.683Z,10.13
2022-11-15T15:27:00.055Z,10.08
2022-11-15T15:29:26.402Z,10.00
2022-11-15T15:31:52.788Z,9.84
2022-11-15T15:34:19.123Z,9.85
2022-11-15T15:36:45.547Z,9.72
2022-11-15T15:39:12.822Z,9.76
2022-11-15T15:41:39.576Z,9.67
2022-11-15T15:44:05.900Z,9.58
2022-11-15T15:46:32.267Z,9.44
2022-11-15T15:48:58.605Z,9.48
2022-11-15T15:51:24.991Z,9.43
2022-11-15T15:53:53.585Z,9.39
2022-11-15T15:56:19.976Z,9.24
2022-11-15T15:58:46.302Z,9.27
2022-11-15T16:01:12.832Z,9.25
2022-11-15T16:03:39.320Z,9.30
2022-11-15T16:06:06.487Z,9.37
2022-11-15T16:08:47.571Z,9.37
2022-11-15T16:11:14.387Z,9.45
2022-11-15T16:13:40.740Z,9.54
2022-11-15T16:16:13.782Z,9.69
2022-11-15T16:18:40.110Z,9.74
2022-11-15T16:21:06.555Z,9.71
2022-11-15T16:23:32.927Z,9.79
2022-11-15T16:25:59.597Z,9.86
2022-11-15T16:28:31.369Z,9.74
2022-11-15T16:31:09.226Z,9.68
2022-11-15T16:33:36.308Z,9.70
2022-11-15T16:36:03.682Z,9.73
2022-11-15T16:38:30.613Z,9.69
2022-11-15T16:40:57.340Z,9.76
2022-11-15T16:43:23.783Z,9.88
2022-11-15T16:45:53.234Z,9.83
2022-11-15T16:48:28.650Z,9.90
2022-11-15T16:50:57.337Z,9.81
2022-11-15T16:53:24.127Z,9.90
2022-11-15T16:55:50.469Z,9.87
2022-11-15T16:58:16.852Z,9.88
2022-11-15T17:00:43.220Z,9.87
2022-11-15T17:03:09.637Z,9.89
2022-11-15T17:05:35.980Z,9.73
2022-11-15T17:08:02.357Z,9.74
2022-11-15T17:10:28.755Z,9.62
2022-11-15T17:12:55.926Z,9.65
2022-11-15T17:15:24.403Z,9.71
2022-11-15T17:17:53.075Z,9.67
2022-11-15T17:20:22.186Z,9.66
2022-11-15T17:22:48.895Z,9.64
2022-11-15T17:25:15.361Z,9.62
2022-11-15T17:27:41.728Z,9.57
2022-11-15T17:30:10.183Z,9.62
2022-11-15T17:32:37.523Z,9.59
2022-11-15T17:35:12.002Z,9.57
2022-11-15T17:37:40.318Z,9.54
2022-11-15T17:40:07.399Z,9.55
2022-11-15T17:42:33.837Z,9.45
2022-11-15T17:45:01.928Z,9.45
2022-11-15T17:47:31.607Z,9.47
2022-11-15T17:49:57.947Z,9.58
2022-11-15T17:52:24.335Z,9.50
2022-11-15T17:54:50.658Z,9.51
2022-11-15T17:57:17.289Z,9.58
2022-11-15T17:59:43.618Z,9.57
2022-11-15T18:02:10.132Z,9.55
2022-11-15T18:04:36.446Z,9.55
2022-11-15T18:07:02.828Z,9.59
2022-11-15T18:09:29.497Z,9.63
2022-11-15T18:11:55.868Z,9.65
2022-11-15T18:14:22.287Z,9.70
2022-11-15T18:16:48.653Z,9.55
2022-11-15T18:19:15.133Z,9.65
2022-11-15T18:21:59.116Z,9.63
2022-11-15T18:24:36.655Z,9.63
2022-11-15T18:27:05.421Z,9.66
2022-11-15T18:29:33.255Z,9.66
2022-11-15T18:32:00.690Z,9.67
2022-11-15T18:34:33.571Z,9.78
2022-11-15T18:37:02.586Z,9.77
2022-11-15T18:39:29.222Z,9.70
2022-11-15T18:41:55.907Z,9.66
2022-11-15T18:44:22.644Z,9.58
2022-11-15T18:46:50.891Z,9.58
2022-11-15T18:49:17.852Z,9.57
2022-11-15T18:51:44.368Z,9.59
2022-11-15T18:54:13.141Z,9.57
2022-11-15T18:56:41.482Z,9.53
2022-11-15T18:59:08.783Z,9.46
2022-11-15T19:01:40.035Z,9.48
2022-11-15T19:04:15.753Z,9.55
2022-11-15T19:06:43.723Z,9.47
2022-11-15T19:09:13.914Z,9.37
2022-11-15T19:11:40.403Z,9.27
2022-11-15T19:14:08.758Z,9.29
2022-11-15T19:16:44.742Z,9.27
2022-11-15T19:19:16.081Z,9.26
2022-11-15T19:21:43.041Z,9.22
2022-11-15T19:24:10.505Z,9.24
2022-11-15T19:26:37.824Z,9.19
2022-11-15T19:29:05.725Z,9.26
2022-11-15T19:31:32.761Z,9.29
2022-11-15T19:34:00.825Z,9.24
2022-11-15T19:36:31.892Z,9.22
2022-11-15T19:39:00.525Z,9.27
2022-11-15T19:41:26.981Z,9.35
2022-11-15T19:43:53.558Z,9.25
2022-11-15T19:46:23.430Z,9.18
2022-11-15T19:48:51.441Z,9.25
2022-11-15T19:51:21.543Z,9.31
2022-11-15T19:53:49.219Z,9.38
2022-11-15T19:56:17.594Z,9.38
2022-11-15T19:58:44.736Z,9.45
2022-11-15T20:01:21.733Z,9.41
2022-11-15T20:03:50.081Z,9.45
2022-11-15T20:06:18.635Z,9.47
2022-11-15T20:08:46.914Z,9.49
2022-11-15T20:11:14.494Z,9.57
2022-11-15T20:13:42.210Z,9.58
2022-11-15T20:16:10.643Z,9.56
2022-11-15T20:18:37.236Z,9.58
2022-11-15T20:21:06.226Z,9.54
2022-11-15T20:23:33.268Z,9.52
2022-11-15T20:25:59.612Z,9.54
2022-11-15T20:28:27.705Z,9.49
2022-11-15T20:30:56.601Z,9.53
2022-11-15T20:33:23.679Z,9.58
2022-11-15T20:35:50.249Z,9.55
2022-11-15T20:38:17.415Z,9.58
2022-11-15T20:40:48.367Z,9.55
2022-11-15T20:43:16.561Z,9.53
2022-11-15T20:45:44.562Z,9.54
2022-11-15T20:48:14.032Z,9.58
2022-11-15T20:50:43.277Z,9.57
2022-11-15T20:53:12.361Z,9.55
2022-11-15T20:55:40.893Z,9.47
2022-11-15T20:58:07.730Z,9.46
2022-11-15T21:00:34.108Z,9.47
2022-11-15T21:03:00.473Z,9.46
2022-11-15T21:05:26.981Z,9.46
2022-11-15T21:07:53.398Z,9.43
2022-11-15T21:10:38.407Z,9.44
2022-11-15T21:13:04.772Z,9.40
2022-11-15T21:15:33.412Z,9.41
2022-11-15T21:17:59.936Z,9.38
2022-11-15T21:20:26.839Z,9.36
2022-11-15T21:22:53.267Z,9.35
2022-11-15T21:25:19.619Z,9.38
2022-11-15T21:27:45.991Z,9.37
2022-11-15T21:30:12.627Z,9.36
2022-11-15T21:32:39.134Z,9.32
2022-11-15T21:35:06.045Z,9.34
2022-11-15T21:37:32.395Z,9.34
2022-11-15T21:39:58.762Z,9.31
2022-11-15T21:42:25.104Z,9.27
2022-11-15T21:44:51.876Z,9.28
2022-11-15T21:47:18.214Z,9.27
2022-11-15T21:49:44.624Z,9.30
2022-11-15T21:52:11.014Z,9.23
2022-11-15T21:54:39.472Z,9.27
2022-11-15T21:57:05.807Z,9.23
2022-11-15T21:59:32.244Z,9.30
2022-11-15T22:02:17.048Z,9.18
2022-11-15T22:04:43.410Z,9.24
2022-11-15T22:07:09.782Z,9.25
2022-11-15T22:09:36.810Z,9.22
2022-11-15T22:12:03.315Z,9.22
2022-11-15T22:14:29.679Z,9.21
2022-11-15T22:16:56.005Z,9.20
2022-11-15T22:19:22.583Z,9.24
2022-11-15T22:21:48.898Z,9.19
2022-11-15T22:24:15.269Z,9.19
2022-11-15T22:26:41.627Z,9.23
2022-11-15T22:29:08.440Z,9.18
2022-11-15T22:31:34.886Z,9.17
2022-11-15T22:34:01.315Z,9.17
2022-11-15T22:36:38.671Z,9.13
2022-11-15T22:39:13.579Z,9.13
2022-11-15T22:41:39.911Z,9.13
2022-11-15T22:44:06.432Z,9.13
2022-11-15T22:46:32.785Z,9.11
2022-11-15T22:49:03.206Z,9.09
2022-11-15T22:51:29.903Z,9.07
2022-11-15T22:53:56.271Z,9.09
2022-11-15T22:56:22.663Z,9.10
2022-11-15T22:58:49.033Z,9.20
2022-11-15T23:01:20.751Z,9.18
2022-11-15T23:03:47.473Z,9.13
2022-11-15T23:06:13.916Z,9.08
2022-11-15T23:08:40.594Z,9.16
2022-11-15T23:11:28.884Z,9.06
2022-11-15T23:13:55.619Z,9.07
2022-11-15T23:16:23.298Z,9.00
2022-11-15T23:18:54.444Z,9.02
2022-11-15T23:21:43.017Z,9.03
2022-11-15T23:24:11.785Z,9.01
2022-11-15T23:26:38.548Z,8.99
2022-11-15T23:29:06.239Z,8.97
2022-11-15T23:32:01.136Z,8.91
2022-11-15T23:34:29.220Z,8.89
2022-11-15T23:36:55.607Z,8.85
2022-11-15T23:39:22.362Z,8.82
2022-11-15T23:41:48.750Z,8.70
2022-11-15T23:44:15.650Z,8.73
2022-11-15T23:46:42.048Z,8.64
2022-11-15T23:49:08.561Z,8.59
2022-11-15T23:51:34.898Z,8.53
2022-11-15T23:54:01.277Z,8.51
2022-11-15T23:56:27.847Z,8.40
2022-11-15T23:58:54.215Z,8.41
